createdAt,value
2019-06-07T00:01:31.368Z,14.07
2019-06-07T00:03:58.917Z,13.85
2019-06-07T00:06:27.297Z,12.65
2019-06-07T00:08:54.816Z,12.10
2019-06-07T00:11:23.247Z,13.10
2019-06-07T00:13:52.839Z,13.32
2019-06-07T00:16:23.283Z,14.57
2019-06-07T00:18:51.576Z,15.98
2019-06-07T00:21:20.479Z,15.20
2019-06-07T00:23:47.938Z,14.05
2019-06-07T00:26:18.178Z,14.80
2019-06-07T00:28:48.950Z,12.07
2019-06-07T00:31:18.198Z,13.68
2019-06-07T00:33:45.865Z,12.78
2019-06-07T00:36:14.659Z,15.48
2019-06-07T00:38:43.916Z,15.70
2019-06-07T00:41:12.539Z,16.15
2019-06-07T00:43:40.098Z,13.50
2019-06-07T00:46:07.925Z,11.08
2019-06-07T00:48:35.426Z,13.65
2019-06-07T00:51:02.645Z,13.20
2019-06-07T00:53:32.571Z,18.30
2019-06-07T00:55:59.923Z,12.53
2019-06-07T00:58:29.405Z,14.38
2019-06-07T01:00:56.655Z,14.93
2019-06-07T01:03:25.990Z,14.00
2019-06-07T01:05:54.453Z,12.28
2019-06-07T01:08:28.155Z,14.55
2019-06-07T01:10:53.963Z,20.02
2019-06-07T01:13:24.110Z,14.23
2019-06-07T01:15:50.774Z,15.07
2019-06-07T01:18:40.382Z,13.93
2019-06-07T01:20:47.583Z,17.10
2019-06-07T01:23:57.866Z,12.70
2019-06-07T01:25:44.709Z,14.80
2019-06-07T01:28:12.448Z,13.55
2019-06-07T01:30:40.347Z,13.03
2019-06-07T01:33:07.838Z,14.38
2019-06-07T01:35:35.146Z,14.98
2019-06-07T01:38:02.378Z,14.35
2019-06-07T01:40:32.765Z,14.83
2019-06-07T01:42:59.712Z,13.40
2019-06-07T01:45:30.897Z,14.13
2019-06-07T01:47:56.563Z,16.97
2019-06-07T01:50:26.875Z,13.78
2019-06-07T01:52:53.844Z,12.80
2019-06-07T01:55:23.635Z,11.53
2019-06-07T01:57:50.693Z,14.90
2019-06-07T02:00:21.628Z,13.98
2019-06-07T02:02:48.868Z,12.05
2019-06-07T02:05:19.121Z,12.78
2019-06-07T02:07:46.059Z,13.22
2019-06-07T02:10:14.235Z,13.25
2019-06-07T02:12:43.448Z,13.28
2019-06-07T02:15:11.995Z,15.18
2019-06-07T02:17:39.526Z,14.20
2019-06-07T02:20:07.355Z,16.95
2019-06-07T02:22:34.606Z,14.13
2019-06-07T02:25:35.222Z,15.40
2019-06-07T02:27:32.976Z,13.65
2019-06-07T02:30:00.420Z,14.85
2019-06-07T02:32:31.684Z,13.78
2019-06-07T02:34:57.287Z,15.18
2019-06-07T02:37:27.635Z,14.25
2019-06-07T02:39:54.767Z,14.98
2019-06-07T02:42:26.115Z,15.68
2019-06-07T02:44:51.597Z,14.75
2019-06-07T02:47:18.961Z,15.17
2019-06-07T02:49:46.029Z,16.43
2019-06-07T02:52:13.272Z,15.20
2019-06-07T02:54:41.961Z,16.07
2019-06-07T02:57:09.440Z,14.47
2019-06-07T03:00:03.761Z,15.00
2019-06-07T03:02:06.118Z,16.60
2019-06-07T03:04:40.558Z,14.98
2019-06-07T03:07:03.159Z,15.53
2019-06-07T03:09:34.406Z,16.15
2019-06-07T03:12:02.834Z,15.10
2019-06-07T03:14:35.133Z,14.23
2019-06-07T03:17:22.188Z,14.85
2019-06-07T03:19:53.160Z,14.28
2019-06-07T03:22:20.537Z,17.25
2019-06-07T03:24:49.953Z,16.52
2019-06-07T03:27:41.312Z,14.17
2019-06-07T03:29:47.442Z,17.27
2019-06-07T03:32:15.174Z,16.97
2019-06-07T03:34:43.828Z,17.65
2019-06-07T03:37:11.478Z,15.78
2019-06-07T03:39:41.012Z,16.02
2019-06-07T03:42:08.579Z,17.32
2019-06-07T03:44:40.654Z,16.90
2019-06-07T03:47:05.702Z,17.63
2019-06-07T03:49:37.511Z,17.10
2019-06-07T03:52:02.402Z,16.27
2019-06-07T03:54:32.106Z,16.55
2019-06-07T03:56:59.547Z,16.70
2019-06-07T03:59:28.426Z,17.60
2019-06-07T04:01:55.954Z,16.17
2019-06-07T04:04:23.213Z,16.57
2019-06-07T04:06:50.451Z,15.88
2019-06-07T04:09:17.657Z,17.55
2019-06-07T04:11:45.477Z,17.70
2019-06-07T04:14:12.840Z,18.37
2019-06-07T04:16:44.107Z,16.45
2019-06-07T04:19:09.596Z,18.15
2019-06-07T04:21:42.356Z,17.60
2019-06-07T04:24:07.723Z,17.75
2019-06-07T04:26:36.835Z,16.23
2019-06-07T04:31:34.489Z,18.30
2019-06-07T04:34:02.897Z,16.07
2019-06-07T04:36:45.946Z,17.02
2019-06-07T04:39:01.081Z,16.35
2019-06-07T04:41:31.018Z,16.87
2019-06-07T04:44:00.680Z,17.25
2019-06-07T04:46:31.554Z,15.75
2019-06-07T04:49:02.792Z,17.85
2019-06-07T04:51:31.893Z,18.37
2019-06-07T04:54:02.422Z,22.50
2019-06-07T04:56:32.854Z,19.10
2019-06-07T04:59:00.422Z,18.67
2019-06-07T05:01:30.634Z,15.72
2019-06-07T05:03:57.177Z,17.37
2019-06-07T05:06:24.856Z,18.32
2019-06-07T05:08:52.238Z,20.25
2019-06-07T05:11:19.859Z,20.85
2019-06-07T05:13:47.658Z,18.37
2019-06-07T05:16:15.005Z,18.23
2019-06-07T05:18:43.311Z,20.55
2019-06-07T05:21:11.028Z,17.55
2019-06-07T05:26:07.502Z,19.42
2019-06-07T05:28:37.862Z,19.35
2019-06-07T05:31:06.183Z,21.30
2019-06-07T05:33:36.610Z,18.48
2019-06-07T05:36:03.695Z,21.80
2019-06-07T05:38:31.121Z,19.95
2019-06-07T05:40:58.514Z,20.27
2019-06-07T05:43:27.534Z,19.20
2019-06-07T05:45:54.822Z,18.52
2019-06-07T05:48:22.379Z,17.67
2019-06-07T05:50:56.600Z,21.60
2019-06-07T05:53:19.205Z,15.60
2019-06-07T05:55:47.703Z,16.62
2019-06-07T05:58:16.855Z,17.05
2019-06-07T06:00:47.180Z,19.12
2019-06-07T06:03:13.558Z,17.12
2019-06-07T06:05:46.189Z,16.82
2019-06-07T06:08:09.945Z,15.35
2019-06-07T06:10:39.692Z,20.70
2019-06-07T06:13:06.576Z,16.35
2019-06-07T06:15:45.297Z,16.62
2019-06-07T06:18:03.420Z,22.70
2019-06-07T06:20:34.509Z,18.23
2019-06-07T06:23:00.042Z,17.45
2019-06-07T06:25:33.548Z,16.67
2019-06-07T06:28:10.499Z,18.62
2019-06-07T06:30:26.410Z,17.57
2019-06-07T06:32:58.147Z,16.30
2019-06-07T06:35:22.715Z,17.60
2019-06-07T06:37:53.353Z,16.25
2019-06-07T06:40:19.950Z,16.52
2019-06-07T06:42:49.094Z,18.90
2019-06-07T06:45:16.863Z,18.90
2019-06-07T06:47:47.646Z,18.07
2019-06-07T06:50:13.546Z,17.70
2019-06-07T06:52:44.058Z,17.87
2019-06-07T06:55:10.721Z,16.75
2019-06-07T06:57:41.465Z,21.30
2019-06-07T07:00:09.963Z,19.10
2019-06-07T07:03:26.916Z,24.35
2019-06-07T07:05:07.514Z,14.35
2019-06-07T07:07:35.308Z,18.37
2019-06-07T07:10:04.018Z,19.48
2019-06-07T07:12:31.688Z,17.57
2019-06-07T07:14:59.313Z,27.00
2019-06-07T07:17:47.940Z,14.78
2019-06-07T07:19:56.830Z,17.07
2019-06-07T07:22:24.701Z,20.37
2019-06-07T07:24:54.789Z,16.07
2019-06-07T07:27:21.951Z,18.90
2019-06-07T07:29:54.613Z,20.68
2019-06-07T07:32:19.074Z,17.27
2019-06-07T07:34:49.501Z,19.20
2019-06-07T07:37:16.480Z,14.85
2019-06-07T07:39:45.254Z,17.52
2019-06-07T07:42:21.179Z,17.90
2019-06-07T07:44:43.304Z,19.98
2019-06-07T07:47:11.941Z,17.70
2019-06-07T07:49:39.136Z,16.95
2019-06-07T07:52:07.025Z,20.37
2019-06-07T07:54:34.527Z,20.05
2019-06-07T07:57:01.936Z,17.67
2019-06-07T07:59:41.753Z,19.00
2019-06-07T08:02:00.284Z,17.80
2019-06-07T08:05:12.068Z,18.05
2019-06-07T08:06:57.167Z,18.90
2019-06-07T08:09:25.134Z,20.43
2019-06-07T08:11:59.600Z,20.35
2019-06-07T08:14:21.507Z,18.48
2019-06-07T08:16:49.361Z,19.50
2019-06-07T08:19:17.768Z,18.07
2019-06-07T08:21:47.549Z,18.75
2019-06-07T08:24:14.251Z,19.20
2019-06-07T08:26:41.470Z,17.27
2019-06-07T08:29:09.160Z,18.57
2019-06-07T08:31:36.496Z,19.55
2019-06-07T08:34:04.216Z,16.90
2019-06-07T08:36:41.758Z,16.17
2019-06-07T08:39:07.413Z,19.87
2019-06-07T08:41:31.250Z,16.15
2019-06-07T08:44:02.589Z,16.12
2019-06-07T08:46:28.226Z,19.45
2019-06-07T08:48:57.122Z,18.00
2019-06-07T08:51:24.991Z,21.68
2019-06-07T08:54:09.611Z,16.48
2019-06-07T08:56:21.533Z,16.67
2019-06-07T08:58:48.724Z,17.75
2019-06-07T09:01:16.064Z,20.70
2019-06-07T09:03:43.491Z,16.80
2019-06-07T09:06:53.714Z,21.12
2019-06-07T09:08:41.135Z,20.25
2019-06-07T09:11:11.147Z,20.05
2019-06-07T09:13:37.908Z,16.50
2019-06-07T09:16:08.658Z,16.95
2019-06-07T09:18:43.221Z,16.62
2019-06-07T09:21:09.076Z,14.55
2019-06-07T09:23:33.861Z,18.07
2019-06-07T09:26:10.553Z,19.05
2019-06-07T09:28:31.835Z,16.90
2019-06-07T09:31:02.894Z,18.57
2019-06-07T09:33:29.018Z,16.80
2019-06-07T09:35:58.675Z,14.73
2019-06-07T09:38:26.975Z,18.23
2019-06-07T09:40:54.670Z,19.65
2019-06-07T09:45:51.625Z,14.55
2019-06-07T09:49:01.294Z,20.35
2019-06-07T09:50:48.235Z,17.10
2019-06-07T09:53:22.409Z,15.75
2019-06-07T09:55:44.686Z,19.23
2019-06-07T10:00:42.952Z,17.45
2019-06-07T10:03:20.742Z,13.20
2019-06-07T10:05:39.957Z,14.95
2019-06-07T10:08:38.022Z,17.57
2019-06-07T10:10:36.899Z,19.05
2019-06-07T10:13:06.292Z,15.25
2019-06-07T10:15:34.167Z,17.65
2019-06-07T10:18:02.709Z,15.13
2019-06-07T10:20:30.515Z,18.75
2019-06-07T10:22:59.553Z,14.55
2019-06-07T10:25:27.160Z,16.35
2019-06-07T10:27:54.770Z,14.10
2019-06-07T10:30:22.292Z,14.80
2019-06-07T10:32:52.174Z,14.40
2019-06-07T10:35:20.023Z,12.73
2019-06-07T10:37:47.395Z,18.42
2019-06-07T10:40:15.243Z,15.08
2019-06-07T10:42:42.648Z,12.70
2019-06-07T10:45:12.301Z,16.00
2019-06-07T10:47:40.386Z,17.52
2019-06-07T10:50:08.560Z,12.28
2019-06-07T10:52:35.736Z,12.85
2019-06-07T10:55:06.553Z,14.30
2019-06-07T10:57:34.406Z,13.60
2019-06-07T11:00:03.337Z,13.55
2019-06-07T11:02:31.761Z,13.55
2019-06-07T11:04:59.482Z,13.03
2019-06-07T11:07:27.154Z,13.10
2019-06-07T11:10:06.101Z,12.73
2019-06-07T11:12:23.800Z,14.28
2019-06-07T11:14:51.908Z,13.68
2019-06-07T11:17:19.629Z,11.30
2019-06-07T11:19:47.063Z,10.15
2019-06-07T11:22:14.491Z,12.13
2019-06-07T11:24:42.383Z,11.28
2019-06-07T11:27:11.650Z,10.48
2019-06-07T11:29:39.821Z,13.58
2019-06-07T11:32:08.396Z,10.25
2019-06-07T11:34:35.952Z,10.78
2019-06-07T11:37:04.690Z,11.18
2019-06-07T11:39:33.082Z,12.78
2019-06-07T11:42:01.218Z,13.32
2019-06-07T11:44:29.015Z,11.90
2019-06-07T11:46:56.917Z,14.38
2019-06-07T11:49:24.286Z,16.87
2019-06-07T11:51:52.172Z,16.32
2019-06-07T11:54:20.616Z,12.15
2019-06-07T11:56:48.065Z,11.80
2019-06-07T11:59:15.725Z,13.43
2019-06-07T12:01:43.008Z,12.55
2019-06-07T12:04:11.564Z,17.73
2019-06-07T12:06:40.431Z,15.32
2019-06-07T12:09:08.622Z,15.90
2019-06-07T12:11:36.656Z,17.37
2019-06-07T12:14:03.961Z,13.93
2019-06-07T13:08:09.141Z,11.48
2019-06-07T13:10:36.955Z,10.18
2019-06-07T13:13:04.489Z,10.45
2019-06-07T13:15:31.703Z,11.45
2019-06-07T13:17:59.752Z,10.72
2019-06-07T13:20:28.801Z,11.20
2019-06-07T13:22:56.660Z,9.40
2019-06-07T13:25:41.095Z,8.58
2019-06-07T13:27:54.038Z,7.62
2019-06-07T13:30:23.535Z,7.62
2019-06-07T13:32:51.285Z,6.67
2019-06-07T13:35:21.543Z,7.70
2019-06-07T13:37:48.530Z,6.70
2019-06-07T13:40:16.451Z,6.75
2019-06-07T13:42:45.164Z,7.30
2019-06-07T13:45:13.922Z,5.85
2019-06-07T13:47:41.653Z,6.78
2019-06-07T13:50:10.853Z,5.50
2019-06-07T13:52:39.935Z,6.10
2019-06-07T13:55:07.816Z,6.55
2019-06-07T13:57:35.261Z,6.75
2019-06-07T14:00:10.492Z,7.47
2019-06-07T14:02:33.217Z,7.22
2019-06-07T14:05:01.206Z,7.67
2019-06-07T14:07:30.049Z,9.13
2019-06-07T14:09:57.654Z,6.47
2019-06-07T14:12:26.178Z,6.20
2019-06-07T14:14:53.925Z,6.78
2019-06-07T14:17:21.612Z,8.78
2019-06-07T14:19:49.131Z,8.55
2019-06-07T14:22:16.889Z,7.45
2019-06-07T14:24:44.604Z,8.63
2019-06-07T14:29:38.991Z,7.85
2019-06-07T14:32:07.260Z,9.65
2019-06-07T14:34:35.582Z,7.47
2019-06-07T14:37:03.313Z,6.70
2019-06-07T14:39:31.432Z,8.00
2019-06-07T14:42:08.946Z,9.75
2019-06-07T14:44:29.715Z,10.90
2019-06-07T14:46:57.620Z,8.63
2019-06-07T14:49:26.323Z,7.97
2019-06-07T14:51:54.596Z,8.68
2019-06-07T14:54:22.253Z,14.78
2019-06-07T14:56:49.798Z,10.40
2019-06-07T14:59:17.839Z,11.30
2019-06-07T15:01:45.278Z,10.48
2019-06-07T15:04:12.733Z,11.10
2019-06-07T15:06:40.517Z,10.15
2019-06-07T15:09:08.080Z,8.05
2019-06-07T15:11:36.314Z,10.70
2019-06-07T15:14:03.757Z,9.73
2019-06-07T15:16:32.004Z,9.58
2019-06-07T15:18:59.645Z,8.38
2019-06-07T15:21:26.951Z,9.23
2019-06-07T15:23:54.433Z,9.40
2019-06-07T15:26:21.908Z,7.92
2019-06-07T15:28:49.603Z,10.63
2019-06-07T15:31:16.737Z,10.00
2019-06-07T15:33:44.471Z,9.95
2019-06-07T15:36:11.814Z,8.40
2019-06-07T15:38:39.653Z,9.43
2019-06-07T15:41:08.482Z,10.93
2019-06-07T15:43:37.449Z,9.20
2019-06-07T15:46:06.740Z,7.17
2019-06-07T15:48:35.969Z,9.58
2019-06-07T15:51:03.493Z,7.67
2019-06-07T15:53:36.258Z,8.80
2019-06-07T15:56:00.122Z,9.73
2019-06-07T15:58:27.627Z,7.25
2019-06-07T16:00:55.371Z,8.83
2019-06-07T16:03:22.786Z,7.87
2019-06-07T16:05:50.422Z,10.75
2019-06-07T16:08:17.314Z,9.78
2019-06-07T16:14:47.217Z,7.80
2019-06-07T16:17:26.023Z,8.48
2019-06-07T16:21:55.965Z,8.35
2019-06-07T16:29:08.942Z,15.88
2019-06-07T16:34:59.795Z,8.18
2019-06-07T16:38:50.304Z,10.93
2019-06-07T16:41:17.217Z,9.93
2019-06-07T16:43:48.976Z,8.13
2019-06-07T16:48:04.858Z,9.38
